Cyclone, Texas
Current Conditions -  °F | °C
As of 9:15 AM on Friday 31 Oct 2014 (Local Time) from KT35 Reporting Station
Clear Clear  
Wind Chill: 16°   Ceiling: Unl
Heat Index: 16°   Visibility: 10mi
Dew Point:   Wind: 14mph
Humidity: 62%   Direction: 350°N
Pressure: 30.26"   Gusts: 17mph
Location:  30.9882°N, 97.103°W
Report Text: KT35 311415Z AUTO 35012G15KT 10SM CLR 16/09 A3026 RMK AO2 T01590086
Loading
Personal Weather Stations






























Interactive Weather Map
Tropical Storm Tracking
New forecast layout! Learn more

10-Day Weather Forecast

Advertisements
Track Severe Weather on mobile